SDR43DM LGIR-EDDW
Flight info
| Callsign | SDR43DM |
|---|---|
| Flight time | N/A |
| Altitude | 38000 |
| Route | EPALO M749 DIRMI UM749 ATV DCT BITLA DCT MAVAR DCT SIMBA DCT GASKA DCT ELNAT P605 NORTA Z595 NIE Z88 VERED VERED3P |
| Aircraft | A319/M-SDE3FGHIRWY/LB1 |
Departure
| Time | N/A |
|---|---|
| Airport | Heraklion International Nikos Kazantzakis Airport (LGIR) |
Arrival
| Time | 2026-04-30 20:14 |
|---|---|
| Airport | Bremen Airport (EDDW) |
| Time | Latitude | Longitude | Altitude | Speed | Heading |
|---|---|---|---|---|---|
| 2026-04-30 17:39 | 39.82340 | 22.24894 | 38094 ft | 402 kts | 323° |
| 2026-04-30 17:42 | 40.05177 | 22.05846 | 38128 ft | 403 kts | 322° |
| 2026-04-30 17:43 | 40.16979 | 21.95925 | 38126 ft | 404 kts | 322° |
| 2026-04-30 17:44 | 40.31158 | 21.83982 | 38147 ft | 404 kts | 322° |
| 2026-04-30 17:47 | 40.52372 | 21.65975 | 38171 ft | 403 kts | 322° |
| 2026-04-30 17:48 | 40.68828 | 21.51907 | 38219 ft | 402 kts | 321° |
| 2026-04-30 17:50 | 40.87610 | 21.35772 | 38238 ft | 401 kts | 321° |
| 2026-04-30 17:52 | 41.00748 | 21.22229 | 38233 ft | 399 kts | 317° |
| 2026-04-30 17:54 | 41.20466 | 21.01839 | 38223 ft | 400 kts | 317° |
| 2026-04-30 17:56 | 41.38010 | 20.83531 | 38227 ft | 401 kts | 317° |
| 2026-04-30 17:58 | 41.51184 | 20.69719 | 38225 ft | 402 kts | 317° |
| 2026-04-30 18:00 | 41.68824 | 20.51106 | 38239 ft | 406 kts | 318° |
| 2026-04-30 18:01 | 41.80242 | 20.39892 | 38255 ft | 407 kts | 320° |
| 2026-04-30 18:02 | 41.93909 | 20.26284 | 38231 ft | 408 kts | 319° |
| 2026-04-30 18:04 | 42.07601 | 20.12581 | 38252 ft | 408 kts | 319° |
| 2026-04-30 18:06 | 42.25784 | 19.94253 | 38252 ft | 408 kts | 319° |
| 2026-04-30 18:08 | 42.41686 | 19.78127 | 38243 ft | 409 kts | 320° |
| 2026-04-30 18:10 | 42.59911 | 19.59492 | 38269 ft | 411 kts | 320° |
| 2026-04-30 18:11 | 42.75867 | 19.43077 | 38287 ft | 411 kts | 320° |
| 2026-04-30 18:13 | 42.87260 | 19.31288 | 38283 ft | 411 kts | 320° |
| 2026-04-30 18:14 | 42.98632 | 19.19458 | 38309 ft | 411 kts | 320° |
| 2026-04-30 18:15 | 43.11517 | 19.05986 | 38301 ft | 412 kts | 320° |
| 2026-04-30 18:16 | 43.20652 | 18.96395 | 38298 ft | 412 kts | 320° |
| 2026-04-30 18:17 | 43.25205 | 18.91602 | 38302 ft | 412 kts | 320° |
| 2026-04-30 18:18 | 43.32032 | 18.84406 | 38304 ft | 413 kts | 320° |
| 2026-04-30 18:18 | 43.36580 | 18.79589 | 38305 ft | 413 kts | 320° |
| 2026-04-30 18:19 | 43.41131 | 18.74758 | 38305 ft | 413 kts | 320° |
| 2026-04-30 18:19 | 43.45683 | 18.69929 | 38316 ft | 413 kts | 320° |
| 2026-04-30 18:20 | 43.50235 | 18.65094 | 38310 ft | 415 kts | 320° |
| 2026-04-30 18:20 | 43.54798 | 18.60226 | 38312 ft | 415 kts | 320° |
| 2026-04-30 18:21 | 43.59361 | 18.55349 | 38312 ft | 415 kts | 320° |
| 2026-04-30 18:21 | 43.63934 | 18.50452 | 38304 ft | 415 kts | 320° |
| 2026-04-30 18:22 | 43.68497 | 18.45546 | 38320 ft | 416 kts | 320° |
| 2026-04-30 18:22 | 43.75344 | 18.38170 | 38308 ft | 416 kts | 320° |
| 2026-04-30 18:23 | 43.79916 | 18.33252 | 38304 ft | 416 kts | 320° |
| 2026-04-30 18:23 | 43.84483 | 18.28320 | 38303 ft | 417 kts | 320° |
| 2026-04-30 18:24 | 43.91348 | 18.20899 | 38332 ft | 417 kts | 320° |
| 2026-04-30 18:25 | 43.95927 | 18.15922 | 38325 ft | 418 kts | 320° |
| 2026-04-30 18:25 | 44.02797 | 18.08442 | 38328 ft | 419 kts | 320° |
| 2026-04-30 18:26 | 44.09676 | 18.00937 | 38324 ft | 419 kts | 320° |
| 2026-04-30 18:27 | 44.16575 | 17.93380 | 38353 ft | 419 kts | 321° |
| 2026-04-30 18:28 | 44.23444 | 17.85836 | 38347 ft | 419 kts | 321° |
| 2026-04-30 18:28 | 44.30308 | 17.78274 | 38344 ft | 419 kts | 321° |
| 2026-04-30 18:29 | 44.39452 | 17.68158 | 38359 ft | 419 kts | 321° |
| 2026-04-30 18:30 | 44.48595 | 17.58013 | 38356 ft | 419 kts | 321° |
| 2026-04-30 18:31 | 44.55436 | 17.50381 | 38350 ft | 419 kts | 321° |
| 2026-04-30 18:32 | 44.62272 | 17.42736 | 38352 ft | 419 kts | 321° |
| 2026-04-30 18:33 | 44.69112 | 17.35072 | 38354 ft | 420 kts | 321° |
| 2026-04-30 18:33 | 44.75960 | 17.27374 | 38345 ft | 420 kts | 321° |
| 2026-04-30 18:34 | 44.82808 | 17.19639 | 38361 ft | 421 kts | 321° |
| 2026-04-30 18:35 | 44.87375 | 17.14479 | 38378 ft | 421 kts | 321° |
| 2026-04-30 18:35 | 44.91936 | 17.09311 | 38371 ft | 421 kts | 321° |
| 2026-04-30 18:36 | 44.98779 | 17.01528 | 38354 ft | 421 kts | 321° |
| 2026-04-30 18:37 | 45.05633 | 16.93730 | 38353 ft | 422 kts | 321° |
| 2026-04-30 18:37 | 45.10151 | 16.88560 | 38363 ft | 422 kts | 321° |
| 2026-04-30 18:38 | 45.14712 | 16.83334 | 38375 ft | 421 kts | 321° |
| 2026-04-30 18:38 | 45.19270 | 16.78106 | 38368 ft | 421 kts | 321° |
| 2026-04-30 18:39 | 45.23821 | 16.72856 | 38360 ft | 422 kts | 321° |
| 2026-04-30 18:39 | 45.28370 | 16.67603 | 38369 ft | 421 kts | 321° |
| 2026-04-30 18:40 | 45.32917 | 16.62344 | 38374 ft | 422 kts | 321° |
| 2026-04-30 18:40 | 45.37472 | 16.57085 | 38381 ft | 422 kts | 322° |
| 2026-04-30 18:41 | 45.42021 | 16.51818 | 38375 ft | 422 kts | 321° |
| 2026-04-30 18:41 | 45.46563 | 16.46529 | 38370 ft | 422 kts | 321° |
| 2026-04-30 18:42 | 45.50831 | 16.41556 | 38374 ft | 421 kts | 321° |
| 2026-04-30 18:42 | 45.57508 | 16.33679 | 38378 ft | 421 kts | 322° |
| 2026-04-30 18:45 | 45.82435 | 16.04411 | 38395 ft | 421 kts | 321° |
| 2026-04-30 18:46 | 45.86952 | 15.99064 | 38395 ft | 421 kts | 321° |
| 2026-04-30 18:46 | 45.91468 | 15.93692 | 38366 ft | 422 kts | 321° |
| 2026-04-30 18:47 | 45.95990 | 15.88301 | 38372 ft | 422 kts | 321° |
| 2026-04-30 18:47 | 45.99753 | 15.83818 | 38376 ft | 423 kts | 321° |
| 2026-04-30 18:48 | 46.04286 | 15.78409 | 38387 ft | 423 kts | 321° |
| 2026-04-30 18:48 | 46.08807 | 15.72982 | 38393 ft | 423 kts | 321° |
| 2026-04-30 18:49 | 46.13364 | 15.67505 | 38386 ft | 424 kts | 322° |
| 2026-04-30 18:49 | 46.17872 | 15.62079 | 38385 ft | 424 kts | 322° |
| 2026-04-30 18:50 | 46.22409 | 15.56607 | 38387 ft | 425 kts | 322° |
| 2026-04-30 18:50 | 46.26946 | 15.51126 | 38391 ft | 425 kts | 322° |
| 2026-04-30 18:51 | 46.31484 | 15.45628 | 38394 ft | 426 kts | 321° |
| 2026-04-30 18:51 | 46.36023 | 15.40119 | 38380 ft | 426 kts | 322° |
| 2026-04-30 18:52 | 46.40566 | 15.34593 | 38378 ft | 427 kts | 322° |
| 2026-04-30 18:52 | 46.45144 | 15.29016 | 38382 ft | 427 kts | 322° |
| 2026-04-30 18:53 | 46.49691 | 15.23460 | 38385 ft | 428 kts | 322° |
| 2026-04-30 18:53 | 46.54241 | 15.17879 | 38394 ft | 428 kts | 322° |
| 2026-04-30 18:54 | 46.58786 | 15.12289 | 38400 ft | 428 kts | 322° |
| 2026-04-30 18:54 | 46.63340 | 15.06685 | 38369 ft | 428 kts | 322° |
| 2026-04-30 18:55 | 46.67866 | 15.01114 | 38381 ft | 429 kts | 322° |
| 2026-04-30 18:55 | 46.74698 | 14.92647 | 38388 ft | 430 kts | 322° |
| 2026-04-30 18:56 | 46.81561 | 14.84130 | 38399 ft | 430 kts | 322° |
| 2026-04-30 18:57 | 46.88398 | 14.75619 | 38392 ft | 430 kts | 323° |
| 2026-04-30 18:57 | 46.92959 | 14.69923 | 38388 ft | 430 kts | 322° |
| 2026-04-30 18:58 | 46.99769 | 14.61386 | 38393 ft | 430 kts | 322° |
| 2026-04-30 18:59 | 47.06587 | 14.52813 | 38396 ft | 431 kts | 322° |
| 2026-04-30 19:00 | 47.15663 | 14.41350 | 38380 ft | 430 kts | 324° |
| 2026-04-30 19:01 | 47.24707 | 14.29899 | 38401 ft | 428 kts | 323° |
| 2026-04-30 19:02 | 47.31464 | 14.21281 | 38368 ft | 428 kts | 324° |
| 2026-04-30 19:03 | 47.40465 | 14.09771 | 38383 ft | 429 kts | 324° |
| 2026-04-30 19:04 | 47.49465 | 13.98203 | 38396 ft | 429 kts | 324° |
| 2026-04-30 19:05 | 47.58461 | 13.86592 | 38376 ft | 429 kts | 324° |
| 2026-04-30 19:06 | 47.67471 | 13.74894 | 38406 ft | 429 kts | 324° |
| 2026-04-30 19:06 | 47.74204 | 13.66132 | 38397 ft | 429 kts | 324° |
| 2026-04-30 19:07 | 47.80926 | 13.57346 | 38380 ft | 429 kts | 324° |
| 2026-04-30 19:08 | 47.89860 | 13.45604 | 38410 ft | 427 kts | 324° |
| 2026-04-30 19:09 | 47.96487 | 13.36880 | 38408 ft | 426 kts | 324° |
| 2026-04-30 19:09 | 48.00928 | 13.31020 | 38406 ft | 426 kts | 324° |
| 2026-04-30 19:10 | 48.09776 | 13.19282 | 38401 ft | 424 kts | 325° |
| 2026-04-30 19:11 | 48.16378 | 13.10481 | 38408 ft | 423 kts | 324° |
| 2026-04-30 19:12 | 48.20766 | 13.04612 | 38405 ft | 423 kts | 324° |
| 2026-04-30 19:12 | 48.25171 | 12.98786 | 38402 ft | 421 kts | 326° |
| 2026-04-30 19:13 | 48.34261 | 12.87833 | 38403 ft | 418 kts | 328° |
| 2026-04-30 19:14 | 48.38784 | 12.82346 | 38406 ft | 417 kts | 327° |
| 2026-04-30 19:14 | 48.43301 | 12.76783 | 38411 ft | 416 kts | 327° |
| 2026-04-30 19:15 | 48.47748 | 12.71283 | 38406 ft | 416 kts | 327° |
| 2026-04-30 19:15 | 48.54490 | 12.62957 | 38403 ft | 415 kts | 327° |
| 2026-04-30 19:16 | 48.58953 | 12.57435 | 38410 ft | 415 kts | 327° |
| 2026-04-30 19:17 | 48.65551 | 12.49228 | 38406 ft | 415 kts | 327° |
| 2026-04-30 19:17 | 48.72224 | 12.40901 | 38410 ft | 414 kts | 327° |
| 2026-04-30 19:18 | 48.78878 | 12.32564 | 38414 ft | 414 kts | 327° |
| 2026-04-30 19:19 | 48.82564 | 12.27932 | 38377 ft | 414 kts | 327° |
| 2026-04-30 19:19 | 48.89211 | 12.19581 | 38399 ft | 413 kts | 327° |
| 2026-04-30 19:20 | 48.93638 | 12.13993 | 38407 ft | 413 kts | 327° |
| 2026-04-30 19:21 | 49.00321 | 12.05731 | 38404 ft | 411 kts | 329° |
| 2026-04-30 19:22 | 49.09466 | 11.95239 | 38364 ft | 412 kts | 329° |
| 2026-04-30 19:23 | 49.23255 | 11.79393 | 38403 ft | 413 kts | 329° |
| 2026-04-30 19:24 | 49.30172 | 11.71534 | 38406 ft | 409 kts | 336° |
| 2026-04-30 19:25 | 49.42845 | 11.62492 | 38394 ft | 403 kts | 341° |
| 2026-04-30 19:26 | 49.53054 | 11.55313 | 38426 ft | 404 kts | 341° |
| 2026-04-30 19:27 | 49.60715 | 11.49898 | 38425 ft | 404 kts | 341° |
| 2026-04-30 19:28 | 49.68375 | 11.44465 | 38414 ft | 404 kts | 341° |
| 2026-04-30 19:29 | 49.78596 | 11.37179 | 38416 ft | 404 kts | 341° |
| 2026-04-30 19:30 | 49.88824 | 11.29861 | 38392 ft | 405 kts | 341° |
| 2026-04-30 19:31 | 49.99060 | 11.22501 | 38412 ft | 406 kts | 340° |
| 2026-04-30 19:31 | 50.06753 | 11.16950 | 38417 ft | 406 kts | 340° |
| 2026-04-30 19:32 | 50.11913 | 11.13217 | 38417 ft | 406 kts | 340° |
| 2026-04-30 19:32 | 50.17037 | 11.09495 | 38426 ft | 406 kts | 340° |
| 2026-04-30 19:33 | 50.22151 | 11.05771 | 38393 ft | 406 kts | 340° |
| 2026-04-30 19:33 | 50.27283 | 11.02029 | 38405 ft | 407 kts | 340° |
| 2026-04-30 19:34 | 50.32415 | 10.98274 | 38405 ft | 408 kts | 340° |
| 2026-04-30 19:35 | 50.40136 | 10.92617 | 38423 ft | 409 kts | 340° |
| 2026-04-30 19:35 | 50.45282 | 10.88832 | 38428 ft | 408 kts | 340° |
| 2026-04-30 19:36 | 50.50433 | 10.85031 | 38429 ft | 408 kts | 340° |
| 2026-04-30 19:36 | 50.58150 | 10.79329 | 38441 ft | 409 kts | 340° |
| 2026-04-30 19:37 | 50.63300 | 10.75511 | 38414 ft | 409 kts | 339° |
| 2026-04-30 19:37 | 50.68458 | 10.71681 | 38417 ft | 410 kts | 339° |
| 2026-04-30 19:38 | 50.73620 | 10.67838 | 38423 ft | 411 kts | 339° |
| 2026-04-30 19:38 | 50.78786 | 10.63975 | 38427 ft | 411 kts | 339° |
| 2026-04-30 19:39 | 50.83955 | 10.60103 | 38427 ft | 411 kts | 339° |
| 2026-04-30 19:39 | 50.89139 | 10.56208 | 38431 ft | 412 kts | 339° |
| 2026-04-30 19:40 | 50.94312 | 10.52308 | 38432 ft | 412 kts | 339° |
| 2026-04-30 19:40 | 50.99491 | 10.48406 | 38436 ft | 412 kts | 339° |
| 2026-04-30 19:41 | 51.04668 | 10.44487 | 38419 ft | 412 kts | 339° |
| 2026-04-30 19:41 | 51.09849 | 10.40549 | 38422 ft | 413 kts | 339° |
| 2026-04-30 19:42 | 51.15047 | 10.36596 | 38416 ft | 414 kts | 339° |
| 2026-04-30 19:42 | 51.20253 | 10.32645 | 38428 ft | 414 kts | 338° |
| 2026-04-30 19:43 | 51.25463 | 10.28670 | 38240 ft | 416 kts | 338° |
| 2026-04-30 19:43 | 51.28069 | 10.26675 | 37633 ft | 415 kts | 338° |
| 2026-04-30 19:44 | 51.33294 | 10.22666 | 36174 ft | 418 kts | 338° |
| 2026-04-30 19:44 | 51.35931 | 10.20641 | 35335 ft | 422 kts | 338° |
| 2026-04-30 19:44 | 51.38577 | 10.18602 | 34785 ft | 420 kts | 338° |
| 2026-04-30 19:44 | 51.41199 | 10.16577 | 34245 ft | 416 kts | 338° |
| 2026-04-30 19:45 | 51.43792 | 10.14575 | 33707 ft | 412 kts | 338° |
| 2026-04-30 19:45 | 51.46357 | 10.12591 | 33192 ft | 407 kts | 338° |
| 2026-04-30 19:45 | 51.48906 | 10.10616 | 32679 ft | 403 kts | 337° |
| 2026-04-30 19:45 | 51.51422 | 10.08668 | 32180 ft | 400 kts | 337° |
| 2026-04-30 19:46 | 51.53917 | 10.06734 | 31687 ft | 397 kts | 337° |
| 2026-04-30 19:46 | 51.56396 | 10.04810 | 31193 ft | 394 kts | 338° |
| 2026-04-30 19:46 | 51.58847 | 10.02906 | 30717 ft | 391 kts | 338° |
| 2026-04-30 19:46 | 51.61297 | 10.00996 | 30184 ft | 388 kts | 338° |
| 2026-04-30 19:47 | 51.63713 | 9.99110 | 29716 ft | 384 kts | 338° |
| 2026-04-30 19:47 | 51.65332 | 9.97846 | 29400 ft | 381 kts | 338° |
| 2026-04-30 19:47 | 51.68496 | 9.95378 | 28808 ft | 377 kts | 338° |
| 2026-04-30 19:47 | 51.70856 | 9.93543 | 28352 ft | 375 kts | 338° |
| 2026-04-30 19:48 | 51.73204 | 9.91716 | 27930 ft | 373 kts | 338° |
| 2026-04-30 19:48 | 51.75504 | 9.89921 | 27508 ft | 371 kts | 338° |
| 2026-04-30 19:48 | 51.77851 | 9.88078 | 27085 ft | 369 kts | 338° |
| 2026-04-30 19:48 | 51.80153 | 9.86263 | 26680 ft | 367 kts | 338° |
| 2026-04-30 19:49 | 51.82457 | 9.84449 | 26263 ft | 370 kts | 338° |
| 2026-04-30 19:49 | 51.87095 | 9.80876 | 25488 ft | 365 kts | 343° |
| 2026-04-30 19:49 | 51.89484 | 9.79507 | 25431 ft | 363 kts | 344° |
| 2026-04-30 19:50 | 51.91873 | 9.78153 | 25432 ft | 365 kts | 344° |
| 2026-04-30 19:50 | 51.94275 | 9.76785 | 25437 ft | 367 kts | 344° |
| 2026-04-30 19:50 | 51.96683 | 9.75409 | 25440 ft | 367 kts | 344° |
| 2026-04-30 19:50 | 51.99090 | 9.74028 | 25441 ft | 367 kts | 344° |
| 2026-04-30 19:51 | 52.01498 | 9.72649 | 25442 ft | 368 kts | 344° |
| 2026-04-30 19:51 | 52.03910 | 9.71270 | 25442 ft | 368 kts | 344° |
| 2026-04-30 19:51 | 52.05546 | 9.70334 | 25441 ft | 368 kts | 344° |
| 2026-04-30 19:51 | 52.07958 | 9.68950 | 25439 ft | 367 kts | 344° |
| 2026-04-30 19:52 | 52.10369 | 9.67567 | 25439 ft | 367 kts | 344° |
| 2026-04-30 19:52 | 52.12780 | 9.66183 | 25437 ft | 367 kts | 344° |
| 2026-04-30 19:52 | 52.15185 | 9.64796 | 25437 ft | 367 kts | 343° |
| 2026-04-30 19:52 | 52.17590 | 9.63403 | 25439 ft | 366 kts | 343° |
| 2026-04-30 19:53 | 52.19988 | 9.62016 | 25438 ft | 366 kts | 344° |
| 2026-04-30 19:53 | 52.22392 | 9.60629 | 25438 ft | 366 kts | 344° |
| 2026-04-30 19:53 | 52.24797 | 9.59243 | 25438 ft | 366 kts | 344° |
| 2026-04-30 19:53 | 52.27194 | 9.57858 | 25427 ft | 365 kts | 343° |
| 2026-04-30 19:54 | 52.29575 | 9.56475 | 25022 ft | 362 kts | 344° |
| 2026-04-30 19:54 | 52.31923 | 9.55004 | 24560 ft | 363 kts | 336° |
| 2026-04-30 19:54 | 52.33986 | 9.52601 | 24111 ft | 367 kts | 321° |
| 2026-04-30 19:54 | 52.35839 | 9.49734 | 23567 ft | 366 kts | 320° |
| 2026-04-30 19:55 | 52.37674 | 9.46859 | 23043 ft | 364 kts | 320° |
| 2026-04-30 19:55 | 52.39494 | 9.43991 | 22543 ft | 362 kts | 320° |
| 2026-04-30 19:55 | 52.41302 | 9.41138 | 22073 ft | 360 kts | 320° |
| 2026-04-30 19:55 | 52.43101 | 9.38306 | 21598 ft | 358 kts | 320° |
| 2026-04-30 19:56 | 52.44895 | 9.35483 | 21110 ft | 356 kts | 320° |
| 2026-04-30 19:56 | 52.46679 | 9.32678 | 20656 ft | 355 kts | 320° |
| 2026-04-30 19:56 | 52.48456 | 9.29875 | 20201 ft | 353 kts | 320° |
| 2026-04-30 19:56 | 52.50223 | 9.27085 | 19758 ft | 352 kts | 320° |
| 2026-04-30 19:57 | 52.51982 | 9.24301 | 19322 ft | 351 kts | 320° |
| 2026-04-30 19:57 | 52.53737 | 9.21524 | 18904 ft | 350 kts | 320° |
| 2026-04-30 19:57 | 52.55482 | 9.18755 | 18442 ft | 348 kts | 320° |
| 2026-04-30 19:57 | 52.57220 | 9.16000 | 17986 ft | 347 kts | 320° |
| 2026-04-30 19:58 | 52.58957 | 9.13249 | 17547 ft | 346 kts | 320° |
| 2026-04-30 19:58 | 52.60687 | 9.10505 | 17120 ft | 344 kts | 320° |
| 2026-04-30 19:58 | 52.62398 | 9.07779 | 16644 ft | 342 kts | 320° |
| 2026-04-30 19:58 | 52.64099 | 9.05058 | 16107 ft | 340 kts | 320° |
| 2026-04-30 19:59 | 52.65817 | 9.02312 | 15525 ft | 340 kts | 319° |
| 2026-04-30 19:59 | 52.67512 | 8.99606 | 14993 ft | 338 kts | 319° |
| 2026-04-30 19:59 | 52.70858 | 8.94251 | 13986 ft | 335 kts | 319° |
| 2026-04-30 20:00 | 52.72527 | 8.91578 | 13452 ft | 332 kts | 319° |
| 2026-04-30 20:00 | 52.74176 | 8.88936 | 12929 ft | 330 kts | 319° |
| 2026-04-30 20:00 | 52.75814 | 8.86307 | 12409 ft | 327 kts | 319° |
| 2026-04-30 20:00 | 52.77438 | 8.83695 | 11901 ft | 324 kts | 319° |
| 2026-04-30 20:01 | 52.80646 | 8.78533 | 10901 ft | 319 kts | 319° |
| 2026-04-30 20:01 | 52.82225 | 8.75987 | 10477 ft | 314 kts | 319° |
| 2026-04-30 20:01 | 52.83772 | 8.73486 | 10082 ft | 308 kts | 319° |
| 2026-04-30 20:02 | 52.86820 | 8.68551 | 9026 ft | 304 kts | 318° |
| 2026-04-30 20:02 | 52.88323 | 8.66112 | 8378 ft | 301 kts | 318° |
| 2026-04-30 20:03 | 52.91291 | 8.61296 | 7112 ft | 296 kts | 318° |
| 2026-04-30 20:03 | 52.92757 | 8.58915 | 6441 ft | 294 kts | 317° |
| 2026-04-30 20:03 | 52.94201 | 8.56563 | 5897 ft | 291 kts | 316° |
| 2026-04-30 20:03 | 52.95344 | 8.53832 | 5226 ft | 288 kts | 290° |
| 2026-04-30 20:04 | 52.95651 | 8.50623 | 4660 ft | 280 kts | 267° |
| 2026-04-30 20:04 | 52.95572 | 8.47417 | 4131 ft | 277 kts | 264° |
| 2026-04-30 20:04 | 52.95452 | 8.44221 | 3621 ft | 278 kts | 264° |
| 2026-04-30 20:05 | 52.95209 | 8.37877 | 2979 ft | 265 kts | 264° |
| 2026-04-30 20:05 | 52.95096 | 8.34865 | 2990 ft | 260 kts | 264° |
| 2026-04-30 20:05 | 52.95293 | 8.28913 | 2983 ft | 262 kts | 294° |
| 2026-04-30 20:06 | 52.96420 | 8.26579 | 2986 ft | 260 kts | 326° |
| 2026-04-30 20:06 | 52.98049 | 8.25431 | 2991 ft | 254 kts | 352° |
| 2026-04-30 20:06 | 52.99779 | 8.25417 | 2989 ft | 248 kts | 15° |
| 2026-04-30 20:06 | 53.01359 | 8.26435 | 2990 ft | 242 kts | 36° |
| 2026-04-30 20:07 | 53.02585 | 8.28284 | 2992 ft | 237 kts | 57° |
| 2026-04-30 20:07 | 53.03331 | 8.30675 | 2992 ft | 233 kts | 76° |
| 2026-04-30 20:07 | 53.03626 | 8.35971 | 2992 ft | 230 kts | 89° |
| 2026-04-30 20:08 | 53.03696 | 8.38531 | 2982 ft | 213 kts | 89° |
| 2026-04-30 20:08 | 53.03759 | 8.40887 | 2988 ft | 197 kts | 90° |
| 2026-04-30 20:08 | 53.03817 | 8.43132 | 2990 ft | 194 kts | 90° |
| 2026-04-30 20:08 | 53.03874 | 8.45359 | 3002 ft | 193 kts | 90° |
| 2026-04-30 20:09 | 53.03931 | 8.47586 | 3004 ft | 193 kts | 89° |
| 2026-04-30 20:09 | 53.03988 | 8.49823 | 3005 ft | 193 kts | 90° |
| 2026-04-30 20:09 | 53.04101 | 8.54267 | 2751 ft | 190 kts | 89° |
| 2026-04-30 20:10 | 53.04207 | 8.58534 | 2275 ft | 180 kts | 90° |
| 2026-04-30 20:10 | 53.04257 | 8.60582 | 2031 ft | 175 kts | 90° |
| 2026-04-30 20:10 | 53.04305 | 8.62536 | 1800 ft | 162 kts | 90° |
| 2026-04-30 20:11 | 53.04387 | 8.65891 | 1408 ft | 132 kts | 91° |
| 2026-04-30 20:11 | 53.04422 | 8.67368 | 1231 ft | 124 kts | 90° |
| 2026-04-30 20:11 | 53.04455 | 8.68781 | 1072 ft | 121 kts | 90° |
| 2026-04-30 20:12 | 53.04521 | 8.71570 | 771 ft | 121 kts | 89° |
| 2026-04-30 20:12 | 53.04556 | 8.72977 | 599 ft | 123 kts | 89° |
| 2026-04-30 20:12 | 53.04587 | 8.74406 | 416 ft | 123 kts | 89° |
| 2026-04-30 20:13 | 53.04614 | 8.75841 | 248 ft | 124 kts | 88° |
| 2026-04-30 20:13 | 53.04651 | 8.77270 | 80 ft | 123 kts | 88° |
| 2026-04-30 20:13 | 53.04682 | 8.78638 | 23 ft | 101 kts | 87° |
| 2026-04-30 20:13 | 53.04703 | 8.79403 | 22 ft | 50 kts | 88° |
| 2026-04-30 20:14 | 53.04715 | 8.79876 | 22 ft | 23 kts | 78° |
| 2026-04-30 20:14 | 53.04825 | 8.79976 | 25 ft | 16 kts | 340° |
| 2026-04-30 20:14 | 53.04877 | 8.79833 | 23 ft | 15 kts | 270° |
| 2026-04-30 20:14 | 53.04873 | 8.79654 | 24 ft | 16 kts | 268° |
| 2026-04-30 20:15 | 53.04868 | 8.79458 | 23 ft | 18 kts | 268° |
| 2026-04-30 20:15 | 53.04863 | 8.79247 | 23 ft | 19 kts | 268° |
| 2026-04-30 20:15 | 53.04858 | 8.79016 | 20 ft | 21 kts | 268° |
| 2026-04-30 20:15 | 53.04852 | 8.78772 | 21 ft | 17 kts | 268° |
| 2026-04-30 20:16 | 53.04915 | 8.78656 | 22 ft | 15 kts | 359° |
| 2026-04-30 20:16 | 53.05014 | 8.78603 | 22 ft | 15 kts | 317° |
| 2026-04-30 20:16 | 53.05092 | 8.78492 | 22 ft | 14 kts | 319° |
| 2026-04-30 20:16 | 53.05152 | 8.78417 | 22 ft | 9 kts | 8° |
| 2026-04-30 20:17 | 53.05189 | 8.78457 | 22 ft | 2 kts | 34° |
| 2026-04-30 20:17 | 53.05199 | 8.78469 | 23 ft | 1 kts | 35° |
| 2026-04-30 20:17 | 53.05201 | 8.78471 | 23 ft | 0 kts | 35° |